createdAt,value
2023-04-14T00:00:35.913Z,98675.34
2023-04-14T00:03:03.086Z,98661.41
2023-04-14T00:05:30.605Z,98650.34
2023-04-14T00:07:58.008Z,98644.53
2023-04-14T00:10:25.326Z,98642.91
2023-04-14T00:12:52.121Z,98624.22
2023-04-14T00:15:19.176Z,98623.22
2023-04-14T00:17:46.002Z,98630.59
2023-04-14T00:20:12.854Z,98624.97
2023-04-14T00:22:39.484Z,98618.41
2023-04-14T00:25:06.233Z,98614.16
2023-04-14T00:27:32.874Z,98621.69
2023-04-14T00:29:59.494Z,98629.31
2023-04-14T00:32:26.147Z,98636.28
2023-04-14T00:34:52.778Z,98651.94
2023-04-14T00:37:19.560Z,98649.03
2023-04-14T00:39:46.273Z,98646.47
2023-04-14T00:42:12.941Z,98648.09
2023-04-14T00:44:39.606Z,98635.47
2023-04-14T00:47:06.342Z,98628.69
2023-04-14T00:49:33.291Z,98627.13
2023-04-14T00:52:00.108Z,98621.44
2023-04-14T00:54:26.852Z,98614.78
2023-04-14T00:56:54.147Z,98614.94
2023-04-14T00:59:21.111Z,98610.72
2023-04-14T01:01:47.820Z,98611.59
2023-04-14T01:04:15.945Z,98606.34
2023-04-14T01:06:42.728Z,98601.41
2023-04-14T01:09:09.718Z,98595.88
2023-04-14T01:12:13.835Z,98595.06
2023-04-14T01:15:11.873Z,98578.84
2023-04-14T01:17:45.536Z,98576.22
2023-04-14T01:20:31.363Z,98557.88
2023-04-14T01:23:09.671Z,98547.06
2023-04-14T01:25:54.743Z,98531.19
2023-04-14T01:28:45.382Z,98515.59
2023-04-14T01:31:20.893Z,98520.78
2023-04-14T01:33:55.155Z,98527.16
2023-04-14T01:36:26.845Z,98525.00
2023-04-14T01:38:55.611Z,98524.25
2023-04-14T01:41:23.308Z,98522.38
2023-04-14T01:43:54.110Z,98520.31
2023-04-14T01:46:21.864Z,98520.78
2023-04-14T01:48:50.618Z,98528.13
2023-04-14T01:51:20.029Z,98534.84
2023-04-14T01:53:49.195Z,98529.66
2023-04-14T01:56:17.868Z,98528.13
2023-04-14T01:58:46.765Z,98523.66
2023-04-14T02:01:14.044Z,98515.13
2023-04-14T02:03:42.828Z,98520.88
2023-04-14T02:06:12.888Z,98505.94
2023-04-14T02:08:41.939Z,98509.56
2023-04-14T02:11:11.446Z,98502.06
2023-04-14T02:13:41.376Z,98492.50
2023-04-14T02:16:10.635Z,98490.78
2023-04-14T02:18:39.372Z,98482.13
2023-04-14T02:21:06.725Z,98485.59
2023-04-14T02:23:33.514Z,98487.38
2023-04-14T02:26:12.257Z,98492.81
2023-04-14T02:28:46.410Z,98508.78
2023-04-14T02:31:15.250Z,98513.00
2023-04-14T02:33:44.410Z,98510.81
2023-04-14T02:36:17.443Z,98522.44
2023-04-14T02:38:53.366Z,98505.88
2023-04-14T02:41:28.931Z,98514.19
2023-04-14T02:44:18.924Z,98505.88
2023-04-14T02:47:06.416Z,98507.94
2023-04-14T02:49:53.373Z,98507.16
2023-04-14T02:52:22.457Z,98502.00
2023-04-14T02:54:50.525Z,98496.94
2023-04-14T02:57:17.797Z,98500.09
2023-04-14T02:59:46.108Z,98501.81
2023-04-14T03:02:13.652Z,98495.03
2023-04-14T03:04:40.512Z,98489.00
2023-04-14T03:07:09.230Z,98487.47
2023-04-14T03:09:36.513Z,98485.06
2023-04-14T03:12:04.717Z,98478.31
2023-04-14T03:14:31.657Z,98461.16
2023-04-14T03:16:59.083Z,98450.88
2023-04-14T03:19:26.600Z,98447.22
2023-04-14T03:21:53.299Z,98442.97
2023-04-14T03:24:22.864Z,98429.31
2023-04-14T03:26:52.416Z,98436.09
2023-04-14T03:29:21.765Z,98432.19
2023-04-14T03:31:49.789Z,98432.28
2023-04-14T03:34:18.078Z,98414.28
2023-04-14T03:36:45.985Z,98409.63
2023-04-14T03:39:14.218Z,98393.44
2023-04-14T03:41:42.537Z,98373.97
2023-04-14T03:44:11.297Z,98375.69
2023-04-14T03:46:38.069Z,98403.69
2023-04-14T03:49:07.789Z,98428.97
2023-04-14T03:51:36.103Z,98523.28
2023-04-14T03:54:05.923Z,98558.69
2023-04-14T03:56:34.557Z,98546.13
2023-04-14T03:59:02.689Z,98533.38
2023-04-14T04:01:32.196Z,98515.91
2023-04-14T04:04:01.356Z,98515.84
2023-04-14T04:06:29.454Z,98515.94
2023-04-14T04:08:56.783Z,98501.16
2023-04-14T04:11:26.896Z,98497.34
2023-04-14T04:13:55.792Z,98498.09
2023-04-14T04:16:24.685Z,98494.34
2023-04-14T04:18:53.319Z,98496.09
2023-04-14T04:21:21.565Z,98500.31
2023-04-14T04:23:53.705Z,98496.47
2023-04-14T04:26:20.433Z,98490.97
2023-04-14T04:28:47.799Z,98492.00
2023-04-14T04:31:16.100Z,98473.72
2023-04-14T04:33:45.294Z,98476.13
2023-04-14T04:36:13.245Z,98482.16
2023-04-14T04:38:39.966Z,98477.91
2023-04-14T04:41:06.605Z,98474.53
2023-04-14T04:43:33.190Z,98475.06
2023-04-14T04:46:17.150Z,98466.00
2023-04-14T04:48:43.818Z,98469.13
2023-04-14T04:51:10.457Z,98477.41
2023-04-14T04:53:37.098Z,98481.72
2023-04-14T04:56:04.053Z,98487.72
2023-04-14T04:58:30.669Z,98486.72
2023-04-14T05:00:57.363Z,98497.38
2023-04-14T05:03:24.144Z,98507.06
2023-04-14T05:05:50.761Z,98512.13
2023-04-14T05:08:17.393Z,98504.19
2023-04-14T05:10:44.365Z,98508.34
2023-04-14T05:13:11.085Z,98510.72
2023-04-14T05:15:37.796Z,98517.66
2023-04-14T05:18:04.543Z,98518.16
2023-04-14T05:20:32.155Z,98513.63
2023-04-14T05:22:59.572Z,98514.47
2023-04-14T05:25:26.232Z,98509.34
2023-04-14T05:27:53.082Z,98502.91
2023-04-14T05:30:19.733Z,98498.34
2023-04-14T05:32:46.419Z,98498.75
2023-04-14T05:35:13.144Z,98509.00
2023-04-14T05:37:39.802Z,98508.75
2023-04-14T05:40:07.334Z,98513.06
2023-04-14T05:42:33.922Z,98502.53
2023-04-14T05:45:00.529Z,98514.69
2023-04-14T05:47:27.243Z,98509.78
2023-04-14T05:49:53.925Z,98506.66
2023-04-14T05:52:20.554Z,98512.56
2023-04-14T05:54:47.169Z,98521.22
2023-04-14T05:57:13.837Z,98522.13
2023-04-14T05:59:41.735Z,98526.81
2023-04-14T06:02:08.516Z,98518.16
2023-04-14T06:04:35.360Z,98520.31
2023-04-14T06:07:02.233Z,98520.44
2023-04-14T06:09:28.948Z,98518.06
2023-04-14T06:11:55.563Z,98522.75
2023-04-14T06:14:22.227Z,98515.06
2023-04-14T06:16:48.879Z,98516.34
2023-04-14T06:19:15.512Z,98518.66
2023-04-14T06:21:42.199Z,98510.50
2023-04-14T06:24:08.841Z,98510.56
2023-04-14T06:26:35.523Z,98505.16
2023-04-14T06:29:02.403Z,98497.06
2023-04-14T06:31:29.254Z,98494.94
2023-04-14T06:33:55.922Z,98491.81
2023-04-14T06:36:22.520Z,98484.19
2023-04-14T06:38:49.193Z,98486.59
2023-04-14T06:41:15.891Z,98483.19
2023-04-14T06:43:42.539Z,98487.00
2023-04-14T06:46:09.197Z,98490.16
2023-04-14T06:48:35.988Z,98488.50
2023-04-14T06:51:02.752Z,98494.75
2023-04-14T06:53:29.421Z,98487.69
2023-04-14T06:55:56.183Z,98484.03
2023-04-14T06:58:22.863Z,98491.47
2023-04-14T07:00:57.546Z,98482.44
2023-04-14T07:03:24.910Z,98491.09
2023-04-14T10:43:50.348Z,98510.50
2023-04-14T10:46:18.622Z,98500.75
2023-04-14T10:48:49.335Z,98501.31
2023-04-14T10:51:17.997Z,98503.03
2023-04-14T10:53:50.829Z,98497.25
2023-04-14T10:56:20.595Z,98500.88
2023-04-14T10:58:58.018Z,98500.03
2023-04-14T11:01:32.730Z,98489.94
2023-04-14T11:04:17.174Z,98489.44
2023-04-14T11:06:46.969Z,98499.53
2023-04-14T11:09:32.130Z,98490.47
2023-04-14T11:12:22.514Z,98491.25
2023-04-14T11:14:49.207Z,98489.38
2023-04-14T11:17:22.559Z,98487.66
2023-04-14T11:19:53.681Z,98482.19
2023-04-14T11:22:43.576Z,98480.00
2023-04-14T11:25:15.225Z,98479.72
2023-04-14T11:27:42.802Z,98484.56
2023-04-14T11:30:14.194Z,98477.84
2023-04-14T11:32:57.680Z,98479.19
2023-04-14T11:35:28.875Z,98481.34
2023-04-14T11:37:59.794Z,98477.16
2023-04-14T11:40:27.473Z,98471.53
2023-04-14T11:42:56.208Z,98474.69
2023-04-14T11:45:28.159Z,98480.28
2023-04-14T11:48:02.518Z,98474.41
2023-04-14T11:50:36.280Z,98470.66
2023-04-14T11:53:11.614Z,98478.28
2023-04-14T11:55:43.210Z,98475.19
2023-04-14T11:58:11.099Z,98475.19
2023-04-14T12:00:37.886Z,98472.47
2023-04-14T12:03:05.152Z,98476.53
2023-04-14T12:05:32.558Z,98465.00
2023-04-14T12:08:04.920Z,98461.78
2023-04-14T12:10:32.348Z,98464.97
2023-04-14T12:13:01.862Z,98464.06
2023-04-14T12:15:33.278Z,98469.72
2023-04-14T12:18:00.714Z,98487.97
2023-04-14T12:20:28.349Z,98486.56
2023-04-14T12:23:02.817Z,98492.75
2023-04-14T12:25:33.014Z,98497.06
2023-04-14T12:28:00.282Z,98497.91
2023-04-14T12:30:26.883Z,98506.66
2023-04-14T12:32:53.685Z,98502.13
2023-04-14T12:35:24.016Z,98517.31
2023-04-14T12:37:51.528Z,98517.44
2023-04-14T12:40:37.920Z,98522.47
2023-04-14T12:43:04.755Z,98521.81
2023-04-14T12:45:44.645Z,98525.72
2023-04-14T12:48:13.350Z,98521.91
2023-04-14T12:50:40.092Z,98524.59
2023-04-14T12:53:26.205Z,98533.88
2023-04-14T12:56:13.650Z,98541.91
2023-04-14T12:58:43.608Z,98546.34
2023-04-14T13:01:11.380Z,98549.53
2023-04-14T13:03:49.605Z,98561.53
2023-04-14T13:06:18.650Z,98554.28
2023-04-14T13:08:52.965Z,98555.72
2023-04-14T13:11:23.481Z,98561.31
2023-04-14T13:13:53.856Z,98544.09
2023-04-14T13:16:20.921Z,98544.38
2023-04-14T13:18:48.663Z,98550.63
2023-04-14T13:21:15.696Z,98554.25
2023-04-14T13:23:42.493Z,98555.50
2023-04-14T13:26:09.251Z,98560.91
2023-04-14T13:28:36.070Z,98565.94
2023-04-14T13:31:02.696Z,98567.16
2023-04-14T13:33:29.338Z,98574.66
2023-04-14T13:35:56.433Z,98576.78
2023-04-14T13:38:23.173Z,98573.53
2023-04-14T13:40:49.852Z,98564.72
2023-04-14T13:43:18.057Z,98568.28
2023-04-14T13:45:44.916Z,98557.50
2023-04-14T13:48:11.806Z,98553.94
2023-04-14T13:50:40.176Z,98557.38
2023-04-14T13:53:06.821Z,98580.66
2023-04-14T13:55:34.478Z,98577.69
2023-04-14T13:58:01.148Z,98567.91
2023-04-14T14:00:27.864Z,98550.16
2023-04-14T14:02:54.738Z,98557.81
2023-04-14T14:05:21.545Z,98560.63
2023-04-14T14:07:51.315Z,98569.28
2023-04-14T14:10:18.104Z,98573.00
2023-04-14T14:12:45.018Z,98575.06
2023-04-14T14:15:11.852Z,98580.59
2023-04-14T14:17:38.799Z,98587.31
2023-04-14T14:20:06.064Z,98589.34
2023-04-14T14:22:32.692Z,98589.91
2023-04-14T14:25:10.780Z,98587.03
2023-04-14T14:27:42.437Z,98597.94
2023-04-14T14:30:09.580Z,98614.13
2023-04-14T14:32:36.260Z,98619.47
2023-04-14T14:35:04.205Z,98619.13
2023-04-14T14:37:30.882Z,98610.38
2023-04-14T14:39:57.587Z,98611.03
2023-04-14T14:42:24.217Z,98605.06
2023-04-14T14:44:50.809Z,98610.38
2023-04-14T14:47:17.735Z,98611.81
2023-04-14T14:49:56.544Z,98620.56
2023-04-14T14:52:30.192Z,98638.22
2023-04-14T14:54:56.995Z,98642.97
2023-04-14T14:57:23.628Z,98636.41
2023-04-14T14:59:50.261Z,98633.91
2023-04-14T15:02:17.048Z,98644.09
2023-04-14T15:04:43.989Z,98651.81
2023-04-14T15:07:10.679Z,98654.84
2023-04-14T15:09:37.324Z,98649.88
2023-04-14T15:12:03.999Z,98656.13
2023-04-14T15:14:30.671Z,98659.50
2023-04-14T15:16:57.471Z,98654.22
2023-04-14T15:19:24.256Z,98668.38
2023-04-14T15:21:51.455Z,98665.22
2023-04-14T15:24:18.210Z,98661.34
2023-04-14T15:26:44.825Z,98673.03
2023-04-14T15:29:14.527Z,98667.56
2023-04-14T15:31:41.130Z,98672.88
2023-04-14T15:34:07.824Z,98666.78
2023-04-14T15:36:34.445Z,98667.91
2023-04-14T15:39:01.082Z,98672.84
2023-04-14T15:41:27.876Z,98678.31
2023-04-14T15:43:54.504Z,98688.38
2023-04-14T15:46:21.291Z,98692.38
2023-04-14T15:48:47.994Z,98695.38
2023-04-14T15:51:14.624Z,98705.19
2023-04-14T15:53:41.316Z,98703.88
2023-04-14T15:56:07.928Z,98706.31
2023-04-14T15:58:34.585Z,98712.09
2023-04-14T16:01:06.758Z,98722.88
2023-04-14T16:03:33.751Z,98728.38
2023-04-14T16:06:04.432Z,98729.03
2023-04-14T16:08:31.046Z,98728.47
2023-04-14T16:10:57.837Z,98729.97
2023-04-14T16:13:24.504Z,98734.91
2023-04-14T16:15:51.393Z,98741.34
2023-04-14T16:18:18.076Z,98738.09
2023-04-14T16:20:44.787Z,98751.09
2023-04-14T16:23:11.567Z,98747.41
2023-04-14T16:25:38.275Z,98748.38
2023-04-14T16:28:04.953Z,98757.16
2023-04-14T16:30:31.724Z,98750.09
2023-04-14T16:32:58.541Z,98755.44
2023-04-14T16:35:25.235Z,98756.47
2023-04-14T16:37:51.843Z,98759.09
2023-04-14T16:40:18.606Z,98766.78
2023-04-14T16:42:45.191Z,98765.56
2023-04-14T16:45:11.847Z,98767.78
2023-04-14T16:47:38.623Z,98773.78
2023-04-14T16:50:05.868Z,98781.28
2023-04-14T16:52:32.500Z,98786.81
2023-04-14T16:54:59.462Z,98781.53
2023-04-14T16:57:26.510Z,98789.34
2023-04-14T16:59:53.262Z,98782.72
2023-04-14T17:02:20.062Z,98780.81
2023-04-14T17:04:46.876Z,98783.09
2023-04-14T17:07:13.662Z,98792.06
2023-04-14T17:09:40.804Z,98791.75
2023-04-14T17:12:07.507Z,98789.38
2023-04-14T17:14:35.110Z,98796.16
2023-04-14T17:17:02.337Z,98795.38
2023-04-14T17:19:29.006Z,98800.22
2023-04-14T17:21:55.656Z,98797.44
2023-04-14T17:24:22.336Z,98803.25
2023-04-14T17:26:49.089Z,98803.38
2023-04-14T17:29:15.698Z,98809.59
2023-04-14T17:31:42.683Z,98817.19
2023-04-14T17:34:09.455Z,98818.47
2023-04-14T17:36:36.180Z,98821.72
2023-04-14T17:39:02.986Z,98830.25
2023-04-14T17:41:30.045Z,98829.50
2023-04-14T17:43:56.720Z,98832.47
2023-04-14T17:46:23.519Z,98839.94
2023-04-14T17:48:50.166Z,98841.84
2023-04-14T17:51:16.812Z,98852.13
2023-04-14T17:53:43.502Z,98850.31
2023-04-14T17:56:10.842Z,98855.53
2023-04-14T17:58:37.520Z,98860.03
2023-04-14T18:01:04.519Z,98868.78
2023-04-14T18:03:31.345Z,98870.91
2023-04-14T18:05:58.003Z,98883.91
2023-04-14T18:08:24.667Z,98880.66
2023-04-14T18:10:51.249Z,98889.91
2023-04-14T18:13:17.930Z,98890.09
2023-04-14T18:15:44.676Z,98902.09
2023-04-14T18:18:11.288Z,98908.47
2023-04-14T18:20:37.944Z,98902.94
2023-04-14T18:23:04.627Z,98902.16
2023-04-14T18:26:26.236Z,98906.97
2023-04-14T18:28:18.786Z,98903.59
2023-04-14T18:30:52.934Z,98908.88
2023-04-14T18:33:19.684Z,98911.53
2023-04-14T18:35:53.403Z,98909.28
2023-04-14T18:38:20.230Z,98915.44
2023-04-14T18:40:47.664Z,98907.06
2023-04-14T18:43:15.295Z,98903.69
2023-04-14T18:45:49.060Z,98920.44
2023-04-14T18:48:16.912Z,98927.19
2023-04-14T18:50:44.869Z,98927.25
2023-04-14T18:53:12.281Z,98936.56
2023-04-14T18:55:45.402Z,98932.31
2023-04-14T18:58:15.608Z,98922.13
2023-04-14T19:00:44.688Z,98938.47
2023-04-14T19:03:11.517Z,98937.94
2023-04-14T19:05:38.248Z,98934.03
2023-04-14T19:08:05.102Z,98942.41
2023-04-14T19:10:33.842Z,98940.91
2023-04-14T19:13:00.475Z,98952.22
2023-04-14T19:15:27.273Z,98958.59
2023-04-14T19:17:54.411Z,98956.72
2023-04-14T19:20:21.704Z,98960.47
2023-04-14T19:22:48.914Z,98969.22
2023-04-14T19:25:15.914Z,98965.59
2023-04-14T19:27:43.450Z,98972.78
2023-04-14T19:30:10.711Z,98966.81
2023-04-14T19:32:37.474Z,98970.16
2023-04-14T19:35:04.947Z,98969.81
2023-04-14T19:37:31.767Z,98961.25
2023-04-14T19:39:58.415Z,98972.22
2023-04-14T19:42:25.061Z,98965.47
2023-04-14T19:44:51.790Z,98980.06
2023-04-14T19:47:18.595Z,98988.06
2023-04-14T19:49:46.383Z,98993.63
2023-04-14T19:52:12.987Z,98997.69
2023-04-14T19:54:39.575Z,98993.53
2023-04-14T19:57:06.218Z,98999.94
2023-04-14T19:59:32.917Z,98997.97
2023-04-14T20:01:59.568Z,98999.88
2023-04-14T20:04:26.771Z,98989.03
2023-04-14T20:06:54.030Z,98984.22
2023-04-14T20:09:20.688Z,98985.22
2023-04-14T20:11:48.767Z,98982.53
2023-04-14T20:14:15.385Z,98992.25
2023-04-14T20:16:42.070Z,98985.63
2023-04-14T20:19:08.953Z,98988.06
2023-04-14T20:21:35.552Z,98985.50
2023-04-14T20:24:02.223Z,98985.69
2023-04-14T20:26:28.832Z,98984.00
2023-04-14T20:28:55.575Z,98989.69
2023-04-14T20:31:22.316Z,98987.53
2023-04-14T20:33:48.994Z,98988.66
2023-04-14T20:36:15.618Z,98988.00
2023-04-14T20:38:42.503Z,98984.94
2023-04-14T20:41:09.218Z,98993.75
2023-04-14T20:43:35.856Z,99002.28
2023-04-14T20:46:03.153Z,99000.72
2023-04-14T20:48:30.781Z,99004.16
2023-04-14T20:50:57.752Z,99009.63
2023-04-14T20:53:24.416Z,99016.84
2023-04-14T20:55:51.472Z,99012.97
2023-04-14T20:58:18.116Z,99001.81
2023-04-14T21:00:44.713Z,99006.19
2023-04-14T21:03:11.498Z,99017.25
2023-04-14T21:05:38.256Z,99014.00
2023-04-14T21:08:05.001Z,99010.75
2023-04-14T21:10:32.116Z,99006.06
2023-04-14T21:15:27.033Z,99003.16
2023-04-14T21:15:57.361Z,99006.78
2023-04-14T21:18:24.112Z,99008.13
2023-04-14T21:20:50.902Z,99011.09
2023-04-14T21:23:17.513Z,99024.47
2023-04-14T21:25:44.229Z,99021.38
2023-04-14T21:28:10.853Z,99020.91
2023-04-14T21:30:37.519Z,99023.38
2023-04-14T21:33:05.474Z,99031.69
2023-04-14T21:35:34.542Z,99022.84
2023-04-14T21:38:01.246Z,99035.81
2023-04-14T21:40:28.126Z,99038.97
2023-04-14T21:42:54.702Z,99026.47
2023-04-14T21:45:21.298Z,99042.34
2023-04-14T21:47:48.050Z,99034.09
2023-04-14T21:50:14.740Z,99034.25
2023-04-14T21:52:41.324Z,99042.47
2023-04-14T21:55:08.464Z,99050.91
2023-04-14T21:57:44.390Z,99053.91
2023-04-14T22:00:17.019Z,99058.44
2023-04-14T22:02:44.542Z,99058.25
2023-04-14T22:05:11.967Z,99059.91
2023-04-14T22:07:38.693Z,99059.13
2023-04-14T22:10:05.794Z,99056.81
2023-04-14T22:12:33.221Z,99059.78
2023-04-14T22:15:09.580Z,99064.66
2023-04-14T22:17:39.148Z,99058.66
2023-04-14T22:20:06.538Z,99054.94
2023-04-14T22:22:33.910Z,99052.00
2023-04-14T22:25:00.557Z,99057.59
2023-04-14T22:27:27.519Z,99059.59
2023-04-14T22:29:54.195Z,99051.28
2023-04-14T22:32:20.897Z,99042.34
2023-04-14T22:34:47.484Z,99049.88
2023-04-14T22:37:14.230Z,99057.59
2023-04-14T22:39:40.875Z,99049.72
2023-04-14T22:42:07.455Z,99046.66
2023-04-14T22:44:34.190Z,99049.25
2023-04-14T22:47:00.867Z,99048.56
2023-04-14T22:49:27.473Z,99043.88
2023-04-14T22:51:54.184Z,99041.47
2023-04-14T22:54:20.942Z,99044.41
2023-04-14T22:56:47.660Z,99048.91
2023-04-14T22:59:14.300Z,99047.63
2023-04-14T23:01:40.929Z,99037.25
2023-04-14T23:04:07.685Z,99044.13
2023-04-14T23:06:34.379Z,99044.50
2023-04-14T23:09:01.331Z,99048.09
2023-04-14T23:11:28.118Z,99051.22
2023-04-14T23:13:54.727Z,99051.06
2023-04-14T23:16:21.564Z,99055.03
2023-04-14T23:18:48.350Z,99048.38
2023-04-14T23:21:15.684Z,99061.19
2023-04-14T23:23:42.351Z,99059.16
2023-04-14T23:26:09.198Z,99062.00
2023-04-14T23:28:35.944Z,99058.00
2023-04-14T23:31:02.630Z,99062.38
2023-04-14T23:33:29.282Z,99065.19
2023-04-14T23:35:58.272Z,99061.06
2023-04-14T23:38:24.956Z,99056.53
2023-04-14T23:40:51.580Z,99070.53
2023-04-14T23:43:18.192Z,99068.16
2023-04-14T23:45:44.854Z,99061.69
2023-04-14T23:48:11.503Z,99062.84
2023-04-14T23:51:02.190Z,99064.03
2023-04-14T23:53:25.479Z,99059.81
2023-04-14T23:55:52.117Z,99054.53
2023-04-14T23:58:26.347Z,99063.56
